createdAt,value
2022-12-31T00:00:08.798Z,60.67
2022-12-31T00:02:36.253Z,62.55
2022-12-31T00:05:04.553Z,60.99
2022-12-31T00:09:57.596Z,64.01
2022-12-31T00:12:24.850Z,63.34
2022-12-31T00:14:51.460Z,62.45
2022-12-31T00:17:18.032Z,61.64
2022-12-31T00:19:44.638Z,61.34
2022-12-31T00:22:11.205Z,63.10
2022-12-31T00:24:37.853Z,62.75
2022-12-31T00:27:04.500Z,66.56
2022-12-31T00:29:31.091Z,65.20
2022-12-31T00:31:57.702Z,64.75
2022-12-31T00:34:24.369Z,64.96
2022-12-31T00:36:51.011Z,68.23
2022-12-31T00:39:17.606Z,67.49
2022-12-31T00:41:44.308Z,66.73
2022-12-31T00:44:14.595Z,65.58
2022-12-31T00:49:07.082Z,64.48
2022-12-31T00:51:33.825Z,64.37
2022-12-31T00:54:00.551Z,65.52
2022-12-31T00:56:29.277Z,70.01
2022-12-31T00:58:56.568Z,71.39
2022-12-31T01:01:26.713Z,68.50
2022-12-31T01:03:56.325Z,66.06
2022-12-31T01:06:22.991Z,65.42
2022-12-31T01:08:50.759Z,64.13
2022-12-31T01:11:24.017Z,64.87
2022-12-31T01:13:50.485Z,64.09
2022-12-31T01:16:18.665Z,64.02
2022-12-31T01:18:45.374Z,65.10
2022-12-31T01:21:13.236Z,64.02
2022-12-31T01:23:40.668Z,64.06
2022-12-31T01:26:09.478Z,63.29
2022-12-31T01:28:36.401Z,64.40
2022-12-31T01:31:08.180Z,64.71
2022-12-31T01:33:35.768Z,64.91
2022-12-31T01:36:05.183Z,66.05
2022-12-31T01:38:32.035Z,66.48
2022-12-31T01:40:58.675Z,66.31
2022-12-31T01:43:56.199Z,65.73
2022-12-31T01:46:51.381Z,66.46
2022-12-31T01:49:23.947Z,66.57
2022-12-31T01:52:09.136Z,65.39
2022-12-31T01:54:40.034Z,64.09
2022-12-31T01:57:08.196Z,64.79
2022-12-31T01:59:34.856Z,65.36
2022-12-31T02:02:01.905Z,66.04
2022-12-31T02:04:29.333Z,65.08
2022-12-31T02:07:07.929Z,64.55
2022-12-31T02:09:38.270Z,64.95
2022-12-31T02:12:06.091Z,65.05
2022-12-31T02:14:37.308Z,64.60
2022-12-31T02:17:09.754Z,64.93
2022-12-31T02:19:41.985Z,64.54
2022-12-31T02:22:39.571Z,63.98
2022-12-31T02:25:25.191Z,64.40
2022-12-31T02:28:12.004Z,64.45
2022-12-31T02:30:40.467Z,65.02
2022-12-31T02:33:32.372Z,63.91
2022-12-31T02:36:03.235Z,63.92
2022-12-31T02:38:38.365Z,64.38
2022-12-31T02:41:05.108Z,65.36
2022-12-31T02:43:31.825Z,65.53
2022-12-31T02:46:10.986Z,65.40
2022-12-31T02:48:37.789Z,65.52
2022-12-31T02:51:20.656Z,65.65
2022-12-31T02:54:05.277Z,66.02
2022-12-31T02:56:45.492Z,64.84
2022-12-31T02:59:41.790Z,64.71
2022-12-31T03:02:14.866Z,64.88
2022-12-31T03:04:49.806Z,65.38
2022-12-31T03:07:22.712Z,65.76
2022-12-31T03:09:49.962Z,65.00
2022-12-31T03:12:37.503Z,64.27
2022-12-31T03:15:06.802Z,64.46
2022-12-31T03:17:34.193Z,65.32
2022-12-31T03:20:19.536Z,68.41
2022-12-31T03:22:46.157Z,65.98
2022-12-31T03:25:35.294Z,65.69
2022-12-31T03:28:04.445Z,64.83
2022-12-31T03:30:32.067Z,64.47
2022-12-31T03:32:59.294Z,65.03
2022-12-31T03:35:27.579Z,64.87
2022-12-31T03:37:54.687Z,65.12
2022-12-31T03:40:23.473Z,65.25
2022-12-31T03:42:50.196Z,64.77
2022-12-31T03:45:16.851Z,64.55
2022-12-31T03:47:43.692Z,63.42
2022-12-31T03:50:12.397Z,64.05
2022-12-31T03:52:39.368Z,63.48
2022-12-31T03:55:06.982Z,64.26
2022-12-31T03:57:33.931Z,64.81
2022-12-31T04:00:00.577Z,63.64
2022-12-31T04:02:29.186Z,63.31
2022-12-31T04:04:56.219Z,64.09
2022-12-31T04:07:23.096Z,63.28
2022-12-31T04:09:49.984Z,62.92
2022-12-31T04:12:16.657Z,62.33
2022-12-31T04:14:43.403Z,61.89
2022-12-31T04:17:10.150Z,62.21
2022-12-31T04:19:37.699Z,61.96
2022-12-31T04:22:04.790Z,61.46
2022-12-31T04:24:31.495Z,61.46
2022-12-31T04:27:03.575Z,61.58
2022-12-31T04:29:32.083Z,60.82
2022-12-31T04:31:58.731Z,60.39
2022-12-31T04:34:25.379Z,60.32
2022-12-31T04:36:51.984Z,60.56
2022-12-31T04:39:18.589Z,60.47
2022-12-31T04:41:45.187Z,59.73
2022-12-31T04:44:12.684Z,59.69
2022-12-31T04:46:39.443Z,59.85
2022-12-31T04:49:06.116Z,59.86
2022-12-31T04:51:32.899Z,60.10
2022-12-31T04:54:00.110Z,60.46
2022-12-31T04:56:28.271Z,59.81
2022-12-31T04:58:55.155Z,59.94
2022-12-31T05:01:22.744Z,59.35
2022-12-31T05:03:49.744Z,58.69
2022-12-31T05:06:22.742Z,59.91
2022-12-31T05:08:50.217Z,59.91
2022-12-31T05:11:17.754Z,59.98
2022-12-31T05:13:44.928Z,59.16
2022-12-31T05:16:11.698Z,59.90
2022-12-31T05:18:38.641Z,59.77
2022-12-31T05:21:06.421Z,60.57
2022-12-31T05:23:33.056Z,60.60
2022-12-31T05:25:59.751Z,59.97
2022-12-31T05:28:26.718Z,60.07
2022-12-31T05:30:53.539Z,59.90
2022-12-31T05:33:20.712Z,60.23
2022-12-31T05:35:47.485Z,60.59
2022-12-31T05:38:14.114Z,59.88
2022-12-31T05:40:40.709Z,59.96
2022-12-31T05:43:07.725Z,59.55
2022-12-31T05:45:34.392Z,58.66
2022-12-31T05:48:01.180Z,60.36
2022-12-31T05:50:27.860Z,59.68
2022-12-31T05:52:54.501Z,60.06
2022-12-31T05:55:21.204Z,59.01
2022-12-31T05:57:47.812Z,59.07
2022-12-31T06:00:15.025Z,58.89
2022-12-31T06:02:41.693Z,58.63
2022-12-31T06:05:08.805Z,57.70
2022-12-31T06:07:35.410Z,57.72
2022-12-31T06:10:02.036Z,57.11
2022-12-31T06:12:28.624Z,57.43
2022-12-31T06:14:55.230Z,57.27
2022-12-31T06:17:22.579Z,56.94
2022-12-31T06:19:49.197Z,57.20
2022-12-31T06:22:16.208Z,56.83
2022-12-31T06:24:42.804Z,56.71
2022-12-31T06:27:09.576Z,56.51
2022-12-31T06:29:36.329Z,56.02
2022-12-31T06:32:03.023Z,55.96
2022-12-31T06:34:29.685Z,55.72
2022-12-31T06:36:56.369Z,56.47
2022-12-31T06:39:23.047Z,56.84
2022-12-31T06:41:49.648Z,56.77
2022-12-31T06:44:16.362Z,56.58
2022-12-31T06:46:42.994Z,56.40
2022-12-31T06:49:09.716Z,56.40
2022-12-31T06:51:36.352Z,56.09
2022-12-31T06:54:02.956Z,56.18
2022-12-31T06:56:34.304Z,55.45
2022-12-31T06:59:02.981Z,55.78
2022-12-31T07:01:41.793Z,56.81
2022-12-31T07:04:45.667Z,58.25
2022-12-31T07:07:22.125Z,58.36
2022-12-31T07:09:58.851Z,58.49
2022-12-31T07:13:10.237Z,58.29
2022-12-31T07:15:59.211Z,58.56
2022-12-31T07:18:40.775Z,58.51
2022-12-31T07:21:16.396Z,57.96
2022-12-31T07:23:43.785Z,57.97
2022-12-31T07:26:34.891Z,58.00
2022-12-31T07:29:13.506Z,57.46
2022-12-31T07:32:13.654Z,57.52
2022-12-31T07:34:58.975Z,57.73
2022-12-31T07:37:41.738Z,57.99
2022-12-31T07:41:01.606Z,57.67
2022-12-31T07:43:42.841Z,57.83
2022-12-31T07:46:22.307Z,58.72
2022-12-31T07:48:49.246Z,60.14
2022-12-31T07:51:16.399Z,59.83
2022-12-31T07:53:42.995Z,60.34
2022-12-31T07:56:10.393Z,61.23
2022-12-31T07:58:39.969Z,61.55
2022-12-31T08:01:15.992Z,61.64
2022-12-31T08:04:22.020Z,60.92
2022-12-31T08:07:19.057Z,60.77
2022-12-31T08:10:12.568Z,60.58
2022-12-31T08:12:43.253Z,60.37
2022-12-31T08:15:15.851Z,60.27
2022-12-31T08:17:43.340Z,59.43
2022-12-31T08:20:17.440Z,60.10
2022-12-31T08:23:14.171Z,60.32
2022-12-31T08:26:06.543Z,61.03
2022-12-31T08:28:35.999Z,61.26
2022-12-31T08:31:09.241Z,60.52
2022-12-31T08:33:42.595Z,60.08
2022-12-31T08:36:12.048Z,59.97
2022-12-31T08:39:08.131Z,59.90
2022-12-31T08:41:47.215Z,59.84
2022-12-31T08:44:16.419Z,59.96
2022-12-31T08:47:07.929Z,60.04
2022-12-31T08:49:35.571Z,61.02
2022-12-31T08:52:03.300Z,61.48
2022-12-31T08:54:30.156Z,61.59
2022-12-31T08:57:37.475Z,60.78
2022-12-31T09:00:11.854Z,60.48
2022-12-31T09:02:48.063Z,60.78
2022-12-31T09:05:25.237Z,61.05
2022-12-31T09:08:09.190Z,61.01
2022-12-31T09:10:56.329Z,61.19
2022-12-31T09:13:57.423Z,60.73
2022-12-31T09:16:32.327Z,60.81
2022-12-31T09:18:58.976Z,60.89
2022-12-31T09:21:25.701Z,60.75
2022-12-31T09:23:52.538Z,60.88
2022-12-31T09:26:47.015Z,60.87
2022-12-31T09:29:43.546Z,61.56
2022-12-31T09:32:48.053Z,61.16
2022-12-31T09:35:30.027Z,60.97
2022-12-31T09:38:07.924Z,60.93
2022-12-31T09:40:46.918Z,60.62
2022-12-31T09:43:41.400Z,60.99
2022-12-31T09:46:34.897Z,61.15
2022-12-31T09:49:10.179Z,60.80
2022-12-31T09:52:04.001Z,61.16
2022-12-31T09:54:43.897Z,61.26
2022-12-31T09:57:33.532Z,61.57
2022-12-31T10:00:18.680Z,62.71
2022-12-31T10:02:56.578Z,62.00
2022-12-31T10:05:59.625Z,61.36
2022-12-31T10:08:29.264Z,61.14
2022-12-31T10:11:05.185Z,61.06
2022-12-31T10:13:56.321Z,61.12
2022-12-31T10:16:49.504Z,60.91
2022-12-31T10:19:28.175Z,60.28
2022-12-31T10:22:06.955Z,60.39
2022-12-31T10:24:39.597Z,59.79
2022-12-31T10:27:16.535Z,59.96
2022-12-31T10:30:02.131Z,59.66
2022-12-31T10:33:00.644Z,58.53
2022-12-31T10:35:54.112Z,58.18
2022-12-31T10:38:20.660Z,58.12
2022-12-31T10:41:06.000Z,57.79
2022-12-31T10:43:57.193Z,55.00
2022-12-31T10:46:48.425Z,52.37
2022-12-31T10:49:50.180Z,51.80
2022-12-31T10:52:28.473Z,52.79
2022-12-31T10:55:26.012Z,50.50
2022-12-31T10:58:15.585Z,50.88
2022-12-31T11:01:00.887Z,51.23
2022-12-31T11:04:03.400Z,48.35
2022-12-31T11:07:02.913Z,48.54
2022-12-31T11:09:53.516Z,49.39
2022-12-31T11:12:32.244Z,50.51
2022-12-31T11:15:13.907Z,49.57
2022-12-31T11:18:04.403Z,48.48
2022-12-31T11:20:55.990Z,47.45
2022-12-31T11:23:41.000Z,48.12
2022-12-31T11:26:27.470Z,47.26
2022-12-31T11:28:59.249Z,49.86
2022-12-31T11:31:37.963Z,48.62
2022-12-31T11:34:13.196Z,50.21
2022-12-31T11:37:01.612Z,50.31
2022-12-31T11:39:59.815Z,47.57
2022-12-31T11:42:26.349Z,49.84
2022-12-31T11:44:59.746Z,48.92
2022-12-31T11:47:32.414Z,47.84
2022-12-31T11:50:25.976Z,48.73
2022-12-31T11:53:23.960Z,49.34
2022-12-31T11:55:53.619Z,47.93
2022-12-31T11:58:22.427Z,47.86
2022-12-31T12:01:00.408Z,47.18
2022-12-31T12:03:27.828Z,48.05
2022-12-31T12:05:57.145Z,48.84
2022-12-31T12:08:25.405Z,48.05
2022-12-31T12:11:00.381Z,48.13
2022-12-31T12:13:27.916Z,49.30
2022-12-31T12:15:58.224Z,47.30
2022-12-31T12:18:40.868Z,46.44
2022-12-31T12:21:20.977Z,47.27
2022-12-31T12:23:57.740Z,45.28
2022-12-31T12:26:32.968Z,45.15
2022-12-31T12:29:08.572Z,45.36
2022-12-31T12:31:36.256Z,44.48
2022-12-31T12:34:04.075Z,43.31
2022-12-31T12:36:31.597Z,39.17
2022-12-31T12:39:06.408Z,38.17
2022-12-31T12:41:33.348Z,35.56
2022-12-31T12:44:09.103Z,31.19
2022-12-31T12:46:47.836Z,31.76
2022-12-31T12:49:40.771Z,35.96
2022-12-31T12:52:36.588Z,37.26
2022-12-31T12:55:11.864Z,38.84
2022-12-31T12:58:00.168Z,36.09
2022-12-31T13:00:54.358Z,39.28
2022-12-31T13:06:49.533Z,38.88
2022-12-31T13:09:25.010Z,36.57
2022-12-31T13:11:58.978Z,37.66
2022-12-31T13:14:46.400Z,40.46
2022-12-31T13:17:22.112Z,38.42
2022-12-31T13:19:48.671Z,39.20
2022-12-31T13:22:42.610Z,38.79
2022-12-31T13:25:34.588Z,40.77
2022-12-31T13:28:05.394Z,41.01
2022-12-31T13:30:54.507Z,40.26
2022-12-31T13:33:27.905Z,40.30
2022-12-31T13:35:58.920Z,41.51
2022-12-31T13:38:40.673Z,43.01
2022-12-31T13:41:28.894Z,41.72
2022-12-31T13:44:01.440Z,43.53
2022-12-31T13:46:43.073Z,43.51
2022-12-31T13:49:31.614Z,40.42
2022-12-31T13:51:58.199Z,42.34
2022-12-31T13:54:36.071Z,41.22
2022-12-31T13:57:23.590Z,41.65
2022-12-31T13:59:57.978Z,41.15
2022-12-31T14:02:48.019Z,42.28
2022-12-31T14:05:23.336Z,43.05
2022-12-31T14:07:57.144Z,44.20
2022-12-31T14:10:52.881Z,44.72
2022-12-31T14:13:34.649Z,44.04
2022-12-31T14:16:01.595Z,44.79
2022-12-31T14:18:46.023Z,44.58
2022-12-31T14:21:40.687Z,43.43
2022-12-31T14:24:21.540Z,46.25
2022-12-31T14:26:52.672Z,44.99
2022-12-31T14:29:28.504Z,44.71
2022-12-31T14:32:08.236Z,44.80
2022-12-31T14:34:50.012Z,45.33
2022-12-31T14:37:54.017Z,45.76
2022-12-31T14:40:49.327Z,45.38
2022-12-31T14:44:00.829Z,45.90
2022-12-31T14:46:56.292Z,45.46
2022-12-31T14:49:56.709Z,45.17
2022-12-31T14:52:35.224Z,45.22
2022-12-31T14:55:51.393Z,45.17
2022-12-31T14:58:29.524Z,44.72
2022-12-31T15:01:04.487Z,43.78
2022-12-31T15:03:31.120Z,43.07
2022-12-31T15:06:00.350Z,43.11
2022-12-31T15:08:51.845Z,44.19
2022-12-31T15:11:23.860Z,43.48
2022-12-31T15:14:16.776Z,43.55
2022-12-31T15:16:43.382Z,43.02
2022-12-31T15:19:18.926Z,43.28
2022-12-31T15:22:00.457Z,43.48
2022-12-31T15:24:30.851Z,43.71
2022-12-31T15:27:00.920Z,43.67
2022-12-31T15:29:45.747Z,44.41
2022-12-31T15:32:20.214Z,44.49
2022-12-31T15:34:47.023Z,45.73
2022-12-31T15:37:35.400Z,46.62
2022-12-31T15:40:24.996Z,47.11
2022-12-31T15:43:13.907Z,46.79
2022-12-31T15:45:42.544Z,46.03
2022-12-31T15:48:19.805Z,46.01
2022-12-31T15:50:47.532Z,47.40
2022-12-31T15:53:42.733Z,48.75
2022-12-31T15:56:18.554Z,50.31
2022-12-31T15:58:47.458Z,50.61
2022-12-31T16:01:44.551Z,49.66
2022-12-31T16:04:21.808Z,48.25
2022-12-31T16:06:51.222Z,47.75
2022-12-31T16:09:27.538Z,50.93
2022-12-31T16:11:56.139Z,50.94
2022-12-31T16:14:38.543Z,49.66
2022-12-31T16:17:06.310Z,51.07
2022-12-31T16:19:51.988Z,50.44
2022-12-31T16:22:36.424Z,49.62
2022-12-31T16:25:30.089Z,48.57
2022-12-31T16:27:53.396Z,47.78
2022-12-31T16:30:27.004Z,47.77
2022-12-31T16:32:58.026Z,48.08
2022-12-31T16:35:32.123Z,48.66
2022-12-31T16:38:08.043Z,48.00
2022-12-31T16:40:35.464Z,47.82
2022-12-31T16:43:02.120Z,47.91
2022-12-31T16:45:36.974Z,48.15
2022-12-31T16:48:17.283Z,48.32
2022-12-31T16:50:50.805Z,48.76
2022-12-31T16:53:21.076Z,48.19
2022-12-31T16:55:57.153Z,48.57
2022-12-31T16:58:36.007Z,48.33
2022-12-31T17:01:23.577Z,47.75
2022-12-31T17:03:58.589Z,47.90
2022-12-31T17:06:28.176Z,48.00
2022-12-31T17:09:00.757Z,47.97
2022-12-31T17:11:33.237Z,47.98
2022-12-31T17:14:06.163Z,48.34
2022-12-31T17:16:34.911Z,48.94
2022-12-31T17:19:01.945Z,49.29
2022-12-31T17:21:30.906Z,49.85
2022-12-31T17:24:04.728Z,50.08
2022-12-31T17:26:33.577Z,49.78
2022-12-31T17:29:02.155Z,49.63
2022-12-31T17:31:33.636Z,50.05
2022-12-31T17:34:06.428Z,50.29
2022-12-31T17:36:33.153Z,49.91
2022-12-31T17:39:19.395Z,49.65
2022-12-31T17:41:49.648Z,49.99
2022-12-31T17:44:21.615Z,49.19
2022-12-31T17:46:50.252Z,48.68
2022-12-31T17:49:21.838Z,49.55
2022-12-31T17:51:48.489Z,48.70
2022-12-31T17:54:17.094Z,49.23
2022-12-31T17:56:44.812Z,49.55
2022-12-31T17:59:37.703Z,50.56
2022-12-31T18:02:05.452Z,50.21
2022-12-31T18:04:32.127Z,51.49
2022-12-31T18:06:58.738Z,50.46
2022-12-31T18:09:25.384Z,50.03
2022-12-31T18:11:55.516Z,50.03
2022-12-31T18:14:23.528Z,50.81
2022-12-31T18:16:50.132Z,49.88
2022-12-31T18:19:45.916Z,49.64
2022-12-31T18:22:03.473Z,50.13
2022-12-31T18:24:30.063Z,51.93
2022-12-31T18:26:56.718Z,51.19
2022-12-31T18:29:23.406Z,51.46
2022-12-31T18:31:50.811Z,50.77
2022-12-31T18:34:18.523Z,51.14
2022-12-31T18:36:45.607Z,50.25
2022-12-31T18:39:12.269Z,51.30
2022-12-31T18:41:49.662Z,50.75
2022-12-31T18:44:16.908Z,50.82
2022-12-31T18:46:43.516Z,51.44
2022-12-31T18:49:10.140Z,51.55
2022-12-31T18:51:36.750Z,52.01
2022-12-31T18:54:04.751Z,52.89
2022-12-31T18:56:31.500Z,52.45
2022-12-31T18:58:59.760Z,52.95
2022-12-31T19:01:29.257Z,52.86
2022-12-31T19:03:58.540Z,52.83
2022-12-31T19:06:25.956Z,52.47
2022-12-31T19:08:53.108Z,54.93
2022-12-31T19:11:20.942Z,56.06
2022-12-31T19:13:48.277Z,53.71
2022-12-31T19:16:15.309Z,53.08
2022-12-31T19:18:42.409Z,54.37
2022-12-31T19:21:20.735Z,53.93
2022-12-31T19:23:47.357Z,53.87
2022-12-31T19:26:15.579Z,55.42
2022-12-31T19:28:42.940Z,56.35
2022-12-31T19:31:09.626Z,55.07
2022-12-31T19:33:36.592Z,54.88
2022-12-31T19:36:04.627Z,54.66
2022-12-31T19:38:32.595Z,55.34
2022-12-31T19:40:59.588Z,54.68
2022-12-31T19:43:26.229Z,54.31
2022-12-31T19:45:53.106Z,55.07
2022-12-31T19:48:27.184Z,54.63
2022-12-31T19:50:58.841Z,55.80
2022-12-31T19:53:27.566Z,55.06
2022-12-31T19:55:54.462Z,55.96
2022-12-31T19:58:25.412Z,54.60
2022-12-31T20:01:02.025Z,55.04
2022-12-31T20:03:31.205Z,55.22
2022-12-31T20:06:07.292Z,55.86
2022-12-31T20:08:35.457Z,57.05
2022-12-31T20:11:12.773Z,57.04
2022-12-31T20:13:40.990Z,56.31
2022-12-31T20:16:10.037Z,55.20
2022-12-31T20:18:38.158Z,55.18
2022-12-31T20:21:09.146Z,54.99
2022-12-31T20:23:35.734Z,54.76
2022-12-31T20:26:02.679Z,54.19
2022-12-31T20:28:29.930Z,54.40
2022-12-31T20:30:56.953Z,55.00
2022-12-31T20:33:23.983Z,55.08
2022-12-31T20:35:50.741Z,55.19
2022-12-31T20:38:17.360Z,54.68
2022-12-31T20:40:46.926Z,54.23
2022-12-31T20:43:14.199Z,55.17
2022-12-31T20:45:41.778Z,55.17
2022-12-31T20:48:08.600Z,55.65
2022-12-31T20:50:35.421Z,56.44
2022-12-31T20:53:02.529Z,56.10
2022-12-31T20:55:30.975Z,55.94
2022-12-31T20:57:57.614Z,55.50
2022-12-31T21:00:24.291Z,57.05
2022-12-31T21:03:00.411Z,56.44
2022-12-31T21:05:31.252Z,56.05
2022-12-31T21:07:58.482Z,55.36
2022-12-31T21:10:25.156Z,56.08
2022-12-31T21:12:54.535Z,56.46
2022-12-31T21:15:21.805Z,56.60
2022-12-31T21:17:48.599Z,56.78
2022-12-31T21:20:15.295Z,58.07
2022-12-31T21:22:41.962Z,56.81
2022-12-31T21:25:10.588Z,57.01
2022-12-31T21:27:37.339Z,57.19
2022-12-31T21:30:20.752Z,56.61
2022-12-31T21:32:48.152Z,57.94
2022-12-31T21:38:02.444Z,56.63
2022-12-31T21:40:30.316Z,57.13
2022-12-31T21:42:57.133Z,57.25
2022-12-31T21:45:24.653Z,57.56
2022-12-31T21:48:10.033Z,57.34
2022-12-31T21:50:36.738Z,57.40
2022-12-31T21:53:03.902Z,57.28
2022-12-31T21:55:48.944Z,58.04
2022-12-31T21:58:32.036Z,58.76
2022-12-31T22:01:18.443Z,59.98
2022-12-31T22:03:45.560Z,59.48
2022-12-31T22:06:16.171Z,59.30
2022-12-31T22:08:44.851Z,59.72
2022-12-31T22:11:13.164Z,58.56
2022-12-31T22:13:40.363Z,58.70
2022-12-31T22:16:07.977Z,57.61
2022-12-31T22:18:38.940Z,56.94
2022-12-31T22:21:23.059Z,58.33
2022-12-31T22:23:52.493Z,57.19
2022-12-31T22:26:21.971Z,56.86
2022-12-31T22:28:49.317Z,56.54
2022-12-31T22:31:18.668Z,56.48
2022-12-31T22:33:45.962Z,56.28
2022-12-31T22:36:18.190Z,56.01
2022-12-31T22:38:44.965Z,57.06
2022-12-31T22:41:17.774Z,57.76
2022-12-31T22:43:47.657Z,56.81
2022-12-31T22:46:20.021Z,56.38
2022-12-31T22:48:47.205Z,57.45
2022-12-31T22:51:14.965Z,58.92
2022-12-31T22:53:43.484Z,60.31
2022-12-31T22:56:12.509Z,58.86
2022-12-31T22:58:39.163Z,58.60
2022-12-31T23:01:16.950Z,58.01
2022-12-31T23:03:43.831Z,58.29
2022-12-31T23:06:10.747Z,58.26
2022-12-31T23:08:37.387Z,57.52
2022-12-31T23:11:09.512Z,58.13
2022-12-31T23:13:59.861Z,59.16
2022-12-31T23:16:48.046Z,60.75
2022-12-31T23:19:34.113Z,61.19
2022-12-31T23:22:19.836Z,63.59
2022-12-31T23:24:46.477Z,64.84
2022-12-31T23:27:13.351Z,63.28
2022-12-31T23:29:46.628Z,62.48
2022-12-31T23:32:15.843Z,62.51
2022-12-31T23:34:43.183Z,63.06
2022-12-31T23:37:10.093Z,63.32
2022-12-31T23:39:36.748Z,62.05
2022-12-31T23:42:03.540Z,61.56
2022-12-31T23:44:30.140Z,61.15
2022-12-31T23:46:56.920Z,61.65
2022-12-31T23:49:23.806Z,61.59
2022-12-31T23:51:50.441Z,61.28
2022-12-31T23:54:17.905Z,60.48
2022-12-31T23:56:44.765Z,59.85
2022-12-31T23:59:12.768Z,60.26
